createdAt,value
2023-02-08T00:00:23.070Z,-1.50
2023-02-08T00:02:49.997Z,-1.60
2023-02-08T00:05:17.656Z,-1.60
2023-02-08T00:07:44.436Z,-1.60
2023-02-08T00:10:11.413Z,-1.70
2023-02-08T00:12:38.152Z,-1.70
2023-02-08T00:15:05.218Z,-1.80
2023-02-08T00:17:32.132Z,-1.70
2023-02-08T00:19:59.054Z,-1.80
2023-02-08T00:22:26.220Z,-1.70
2023-02-08T00:24:52.953Z,-1.70
2023-02-08T00:27:19.690Z,-1.70
2023-02-08T00:29:46.427Z,-1.80
2023-02-08T00:32:13.102Z,-1.90
2023-02-08T00:34:39.821Z,-2.00
2023-02-08T00:37:06.801Z,-2.10
2023-02-08T00:39:33.776Z,-2.20
2023-02-08T00:42:00.558Z,-2.20
2023-02-08T00:44:27.299Z,-2.20
2023-02-08T00:46:54.738Z,-2.30
2023-02-08T00:49:21.641Z,-2.40
2023-02-08T00:51:48.302Z,-2.40
2023-02-08T00:54:18.774Z,-2.40
2023-02-08T00:56:45.539Z,-2.40
2023-02-08T00:59:12.377Z,-2.50
2023-02-08T01:01:39.574Z,-2.50
2023-02-08T01:04:06.332Z,-2.50
2023-02-08T01:06:33.078Z,-2.50
2023-02-08T01:08:59.787Z,-2.50
2023-02-08T01:11:26.693Z,-2.40
2023-02-08T01:13:54.393Z,-2.50
2023-02-08T01:16:26.134Z,-2.50
2023-02-08T01:18:53.888Z,-2.40
2023-02-08T01:21:22.699Z,-2.30
2023-02-08T01:23:49.966Z,-2.30
2023-02-08T01:26:17.211Z,-2.30
2023-02-08T01:28:45.364Z,-2.30
2023-02-08T01:31:18.221Z,-2.30
2023-02-08T01:33:44.864Z,-2.30
2023-02-08T01:36:11.640Z,-2.30
2023-02-08T01:38:38.718Z,-2.30
2023-02-08T01:41:06.316Z,-2.40
2023-02-08T01:43:58.970Z,-2.60
2023-02-08T01:46:25.728Z,-2.70
2023-02-08T01:48:52.478Z,-2.80
2023-02-08T01:51:23.944Z,-2.80
2023-02-08T01:53:51.335Z,-2.80
2023-02-08T01:56:21.248Z,-3.00
2023-02-08T01:58:50.217Z,-3.00
2023-02-08T02:01:17.019Z,-2.90
2023-02-08T02:03:43.707Z,-2.90
2023-02-08T02:06:13.096Z,-2.90
2023-02-08T02:08:48.466Z,-2.80
2023-02-08T02:11:15.459Z,-2.80
2023-02-08T02:13:44.873Z,-2.80
2023-02-08T02:16:11.633Z,-2.70
2023-02-08T02:18:38.330Z,-2.70
2023-02-08T02:21:31.063Z,-2.70
2023-02-08T02:24:22.692Z,-2.70
2023-02-08T02:26:58.351Z,-2.80
2023-02-08T02:29:37.173Z,-2.90
2023-02-08T02:32:04.205Z,-2.90
2023-02-08T02:34:38.894Z,-2.90
2023-02-08T02:37:11.569Z,-2.80
2023-02-08T02:39:56.939Z,-2.80
2023-02-08T02:43:06.401Z,-2.90
2023-02-08T02:45:46.287Z,-2.90
2023-02-08T02:48:19.921Z,-3.00
2023-02-08T02:50:47.994Z,-3.00
2023-02-08T02:53:30.964Z,-3.00
2023-02-08T02:56:02.293Z,-3.00
2023-02-08T02:58:28.986Z,-3.00
2023-02-08T03:00:56.462Z,-3.00
2023-02-08T03:03:25.189Z,-2.90
2023-02-08T03:05:53.245Z,-3.00
2023-02-08T03:08:32.014Z,-3.10
2023-02-08T03:11:21.318Z,-3.10
2023-02-08T03:14:08.388Z,-3.20
2023-02-08T03:16:44.268Z,-3.30
2023-02-08T03:19:22.552Z,-3.20
2023-02-08T03:22:03.291Z,-3.20
2023-02-08T03:24:45.477Z,-3.10
2023-02-08T03:27:45.574Z,-3.00
2023-02-08T03:30:17.348Z,-2.90
2023-02-08T03:33:06.411Z,-2.80
2023-02-08T03:35:49.520Z,-2.80
2023-02-08T03:38:19.362Z,-2.80
2023-02-08T03:40:47.743Z,-2.80
2023-02-08T03:43:20.494Z,-2.90
2023-02-08T03:45:50.448Z,-2.90
2023-02-08T03:48:17.382Z,-2.90
2023-02-08T03:50:44.935Z,-3.00
2023-02-08T03:53:11.601Z,-3.00
2023-02-08T03:55:38.290Z,-3.20
2023-02-08T03:58:21.716Z,-3.20
2023-02-08T04:01:10.856Z,-3.30
2023-02-08T04:03:37.540Z,-3.40
2023-02-08T04:06:04.368Z,-3.50
2023-02-08T04:08:31.069Z,-3.30
2023-02-08T04:10:58.042Z,-3.40
2023-02-08T04:13:24.890Z,-3.30
2023-02-08T04:15:51.599Z,-3.30
2023-02-08T04:18:18.754Z,-3.20
2023-02-08T04:20:45.529Z,-3.10
2023-02-08T04:23:12.186Z,-3.10
2023-02-08T04:25:38.944Z,-3.00
2023-02-08T04:28:05.801Z,-3.00
2023-02-08T04:30:32.630Z,-3.00
2023-02-08T04:32:59.947Z,-2.90
2023-02-08T04:35:26.674Z,-2.90
2023-02-08T04:37:53.344Z,-2.80
2023-02-08T04:40:20.118Z,-2.80
2023-02-08T04:42:46.848Z,-2.80
2023-02-08T04:45:13.492Z,-2.90
2023-02-08T04:47:40.164Z,-2.80
2023-02-08T04:50:06.897Z,-2.90
2023-02-08T04:52:33.586Z,-2.90
2023-02-08T04:55:00.223Z,-2.90
2023-02-08T04:57:26.943Z,-3.00
2023-02-08T04:59:53.631Z,-3.00
2023-02-08T05:02:20.609Z,-3.00
2023-02-08T05:04:47.298Z,-3.10
2023-02-08T05:07:13.989Z,-3.20
2023-02-08T05:09:40.908Z,-3.20
2023-02-08T05:12:08.949Z,-3.20
2023-02-08T05:14:35.906Z,-3.10
2023-02-08T05:17:28.386Z,-3.10
2023-02-08T05:19:56.017Z,-3.20
2023-02-08T05:22:22.895Z,-3.20
2023-02-08T05:24:49.627Z,-3.10
2023-02-08T05:27:16.455Z,-3.20
2023-02-08T05:29:43.200Z,-3.20
2023-02-08T05:32:10.044Z,-3.20
2023-02-08T05:34:37.580Z,-3.20
2023-02-08T05:37:04.381Z,-3.30
2023-02-08T05:39:31.294Z,-3.30
2023-02-08T05:41:58.004Z,-3.30
2023-02-08T05:44:24.701Z,-3.40
2023-02-08T05:46:51.403Z,-3.40
2023-02-08T05:49:18.101Z,-3.30
2023-02-08T05:51:44.891Z,-3.30
2023-02-08T05:54:12.052Z,-3.30
2023-02-08T05:56:38.987Z,-3.30
2023-02-08T05:59:05.807Z,-3.30
2023-02-08T06:01:32.457Z,-3.40
2023-02-08T06:04:00.307Z,-3.30
2023-02-08T06:06:27.227Z,-3.30
2023-02-08T06:08:54.043Z,-3.20
2023-02-08T06:11:20.951Z,-3.20
2023-02-08T06:13:47.770Z,-3.20
2023-02-08T06:16:14.654Z,-3.20
2023-02-08T06:18:41.418Z,-3.20
2023-02-08T06:21:08.158Z,-3.10
2023-02-08T06:23:34.864Z,-3.20
2023-02-08T06:26:01.941Z,-3.20
2023-02-08T06:28:28.781Z,-3.20
2023-02-08T06:30:55.885Z,-3.30
2023-02-08T06:33:22.714Z,-3.40
2023-02-08T06:35:51.662Z,-3.30
2023-02-08T06:38:20.160Z,-3.30
2023-02-08T06:40:47.412Z,-3.30
2023-02-08T06:43:14.569Z,-3.30
2023-02-08T06:45:42.889Z,-3.20
2023-02-08T06:48:10.114Z,-3.30
2023-02-08T06:50:38.093Z,-3.20
2023-02-08T06:53:05.627Z,-3.30
2023-02-08T06:55:35.447Z,-3.30
2023-02-08T06:58:07.193Z,-3.20
2023-02-08T07:00:35.539Z,-3.20
2023-02-08T07:03:10.931Z,-3.20
2023-02-08T07:06:03.726Z,-3.20
2023-02-08T07:08:31.807Z,-3.10
2023-02-08T07:10:58.886Z,-3.10
2023-02-08T07:13:25.958Z,-3.10
2023-02-08T07:15:52.820Z,-3.10
2023-02-08T07:18:22.199Z,-3.20
2023-02-08T07:20:49.349Z,-3.20
2023-02-08T07:23:16.287Z,-3.10
2023-02-08T07:25:46.120Z,-3.10
2023-02-08T07:28:15.350Z,-3.00
2023-02-08T07:30:42.687Z,-3.10
2023-02-08T07:33:12.742Z,-3.00
2023-02-08T07:35:39.693Z,-3.00
2023-02-08T07:38:06.493Z,-3.10
2023-02-08T07:40:33.482Z,-3.10
2023-02-08T07:43:01.730Z,-3.10
2023-02-08T07:45:41.308Z,-3.10
2023-02-08T07:48:09.604Z,-3.10
2023-02-08T07:50:36.851Z,-3.00
2023-02-08T07:53:03.832Z,-3.00
2023-02-08T07:55:30.814Z,-2.90
2023-02-08T07:57:58.610Z,-2.90
2023-02-08T08:00:26.930Z,-2.80
2023-02-08T08:02:54.002Z,-2.70
2023-02-08T08:05:23.618Z,-2.60
2023-02-08T08:07:51.726Z,-2.50
2023-02-08T08:10:20.915Z,-2.50
2023-02-08T08:12:52.542Z,-2.30
2023-02-08T08:15:19.709Z,-2.20
2023-02-08T08:17:47.096Z,-2.00
2023-02-08T08:20:13.763Z,-1.80
2023-02-08T08:22:40.443Z,-1.70
2023-02-08T08:25:07.207Z,-1.60
2023-02-08T08:27:35.002Z,-1.40
2023-02-08T08:30:02.020Z,-1.30
2023-02-08T08:32:28.690Z,-1.20
2023-02-08T08:34:55.425Z,-1.10
2023-02-08T08:37:22.116Z,-1.00
2023-02-08T08:39:48.789Z,-1.00
2023-02-08T08:42:15.567Z,-0.90
2023-02-08T08:44:42.439Z,-0.80
2023-02-08T08:47:09.129Z,-0.70
2023-02-08T08:49:35.794Z,-0.70
2023-02-08T08:52:02.462Z,-0.70
2023-02-08T08:54:29.406Z,-0.60
2023-02-08T08:56:56.201Z,-0.50
2023-02-08T08:59:22.953Z,-0.40
2023-02-08T09:01:49.612Z,-0.30
2023-02-08T09:04:19.827Z,-0.20
2023-02-08T09:06:47.397Z,-0.20
2023-02-08T09:09:14.062Z,-0.10
2023-02-08T09:11:40.724Z,0.00
2023-02-08T09:14:07.667Z,0.10
2023-02-08T09:16:34.360Z,0.20
2023-02-08T09:19:05.050Z,0.30
2023-02-08T09:21:31.815Z,0.40
2023-02-08T09:23:58.539Z,0.50
2023-02-08T09:26:26.466Z,0.50
2023-02-08T09:28:53.212Z,0.50
2023-02-08T09:31:21.112Z,0.60
2023-02-08T09:33:48.379Z,0.60
2023-02-08T09:36:15.049Z,0.70
2023-02-08T09:38:41.913Z,0.70
2023-02-08T09:41:21.429Z,0.80
2023-02-08T09:44:03.131Z,0.90
2023-02-08T09:46:30.654Z,0.90
2023-02-08T09:48:59.405Z,1.10
2023-02-08T09:51:41.928Z,1.20
2023-02-08T09:54:35.463Z,1.30
2023-02-08T09:57:08.676Z,1.40
2023-02-08T09:59:35.408Z,1.40
2023-02-08T10:02:17.438Z,1.50
2023-02-08T10:05:10.867Z,1.60
2023-02-08T10:07:37.969Z,1.60
2023-02-08T10:10:06.630Z,1.80
2023-02-08T10:12:51.592Z,1.80
2023-02-08T10:15:30.286Z,1.90
2023-02-08T10:18:13.882Z,1.90
2023-02-08T10:21:21.810Z,2.00
2023-02-08T10:23:59.933Z,2.10
2023-02-08T10:26:46.621Z,2.20
2023-02-08T10:29:33.382Z,2.20
2023-02-08T10:32:26.849Z,2.30
2023-02-08T10:34:59.935Z,2.40
2023-02-08T10:37:32.444Z,2.40
2023-02-08T10:40:03.094Z,2.60
2023-02-08T10:42:29.940Z,2.60
2023-02-08T10:45:23.829Z,2.60
2023-02-08T10:47:56.824Z,2.80
2023-02-08T10:50:37.108Z,2.80
2023-02-08T10:53:03.955Z,2.80
2023-02-08T10:55:31.561Z,2.90
2023-02-08T10:58:02.536Z,2.90
2023-02-08T11:00:38.856Z,2.90
2023-02-08T11:03:24.907Z,3.00
2023-02-08T11:05:51.997Z,3.30
2023-02-08T11:08:24.045Z,3.30
2023-02-08T11:11:07.451Z,3.30
2023-02-08T11:13:51.256Z,3.30
2023-02-08T11:16:27.543Z,3.30
2023-02-08T11:18:57.249Z,3.20
2023-02-08T11:21:33.505Z,3.30
2023-02-08T11:24:22.263Z,3.20
2023-02-08T11:26:50.282Z,3.40
2023-02-08T11:29:19.588Z,3.40
2023-02-08T11:32:02.729Z,3.40
2023-02-08T11:34:38.383Z,3.50
2023-02-08T11:37:16.397Z,3.50
2023-02-08T11:39:49.816Z,3.50
2023-02-08T11:42:22.469Z,3.60
2023-02-08T11:44:49.464Z,3.60
2023-02-08T11:47:18.619Z,3.60
2023-02-08T11:49:58.043Z,3.60
2023-02-08T11:52:33.129Z,3.70
2023-02-08T11:55:24.579Z,3.70
2023-02-08T11:57:55.755Z,3.70
2023-02-08T12:00:25.425Z,3.70
2023-02-08T12:02:54.465Z,3.90
2023-02-08T12:05:24.167Z,4.00
2023-02-08T12:08:13.809Z,3.90
2023-02-08T12:11:17.894Z,3.90
2023-02-08T12:13:44.583Z,4.00
2023-02-08T12:16:25.592Z,4.00
2023-02-08T12:19:07.744Z,4.10
2023-02-08T12:21:37.221Z,4.10
2023-02-08T12:24:27.483Z,4.20
2023-02-08T12:27:10.296Z,4.70
2023-02-08T12:29:47.784Z,5.50
2023-02-08T12:32:45.754Z,6.30
2023-02-08T12:36:02.754Z,6.80
2023-02-08T12:39:19.928Z,7.60
2023-02-08T12:42:15.208Z,8.00
2023-02-08T12:44:48.620Z,8.60
2023-02-08T12:47:24.089Z,8.30
2023-02-08T12:50:06.950Z,8.70
2023-02-08T12:52:45.429Z,9.80
2023-02-08T12:55:17.398Z,9.70
2023-02-08T12:57:45.664Z,9.90
2023-02-08T13:00:16.739Z,9.50
2023-02-08T13:03:21.600Z,9.20
2023-02-08T13:06:01.790Z,9.90
2023-02-08T13:08:45.448Z,10.70
2023-02-08T13:11:27.592Z,10.80
2023-02-08T13:14:21.268Z,10.20
2023-02-08T13:16:50.408Z,11.60
2023-02-08T13:19:59.817Z,11.00
2023-02-08T13:22:27.923Z,10.20
2023-02-08T13:25:06.272Z,11.00
2023-02-08T13:27:34.079Z,11.10
2023-02-08T13:30:00.849Z,11.20
2023-02-08T13:32:34.503Z,12.00
2023-02-08T13:35:22.347Z,11.10
2023-02-08T13:37:59.138Z,11.00
2023-02-08T13:40:30.467Z,9.90
2023-02-08T13:43:05.230Z,9.30
2023-02-08T13:45:42.496Z,8.20
2023-02-08T13:48:11.530Z,7.70
2023-02-08T13:50:48.190Z,7.10
2023-02-08T13:53:16.696Z,6.70
2023-02-08T13:55:59.093Z,6.50
2023-02-08T13:58:27.175Z,6.40
2023-02-08T14:00:53.846Z,6.30
2023-02-08T14:03:22.887Z,6.30
2023-02-08T14:05:57.841Z,6.30
2023-02-08T14:08:52.628Z,6.30
2023-02-08T14:11:45.370Z,6.40
2023-02-08T14:14:30.516Z,6.40
2023-02-08T14:17:20.586Z,6.40
2023-02-08T14:19:57.031Z,6.40
2023-02-08T14:22:23.775Z,6.40
2023-02-08T14:25:00.045Z,6.20
2023-02-08T14:27:40.215Z,6.20
2023-02-08T14:30:07.214Z,6.20
2023-02-08T14:32:35.851Z,6.10
2023-02-08T14:35:22.664Z,6.10
2023-02-08T14:37:58.457Z,6.10
2023-02-08T14:40:33.427Z,6.00
2023-02-08T14:43:23.116Z,6.10
2023-02-08T14:45:53.828Z,6.00
2023-02-08T14:48:37.282Z,5.90
2023-02-08T14:51:10.187Z,5.90
2023-02-08T14:53:42.075Z,5.90
2023-02-08T14:56:39.069Z,5.80
2023-02-08T14:59:13.766Z,5.80
2023-02-08T15:01:45.516Z,5.70
2023-02-08T15:04:12.628Z,5.70
2023-02-08T15:06:39.546Z,5.70
2023-02-08T15:09:13.055Z,5.70
2023-02-08T15:11:39.834Z,5.60
2023-02-08T15:14:06.520Z,5.60
2023-02-08T15:16:40.520Z,5.50
2023-02-08T15:19:08.141Z,5.50
2023-02-08T15:21:37.174Z,5.50
2023-02-08T15:24:18.161Z,5.40
2023-02-08T15:26:49.644Z,5.30
2023-02-08T15:29:24.633Z,5.40
2023-02-08T15:31:53.286Z,5.40
2023-02-08T15:34:20.868Z,5.30
2023-02-08T15:36:55.011Z,5.20
2023-02-08T15:39:40.702Z,5.20
2023-02-08T15:42:17.664Z,5.20
2023-02-08T15:44:44.553Z,5.10
2023-02-08T15:47:35.927Z,5.10
2023-02-08T15:50:03.135Z,5.00
2023-02-08T15:52:31.811Z,5.00
2023-02-08T15:54:58.555Z,5.00
2023-02-08T15:57:45.953Z,5.00
2023-02-08T16:00:15.856Z,5.00
2023-02-08T16:02:42.738Z,4.90
2023-02-08T16:05:24.916Z,4.80
2023-02-08T16:07:51.787Z,4.80
2023-02-08T16:10:23.372Z,4.80
2023-02-08T16:12:52.914Z,4.70
2023-02-08T16:15:36.764Z,4.80
2023-02-08T16:18:03.916Z,4.70
2023-02-08T16:20:34.138Z,4.60
2023-02-08T16:23:21.914Z,4.60
2023-02-08T16:25:51.256Z,4.60
2023-02-08T16:28:31.772Z,4.60
2023-02-08T16:31:00.157Z,4.50
2023-02-08T16:33:27.056Z,4.50
2023-02-08T16:35:56.428Z,4.40
2023-02-08T16:38:23.595Z,4.40
2023-02-08T16:40:51.579Z,4.30
2023-02-08T16:43:22.572Z,4.20
2023-02-08T16:46:09.801Z,4.20
2023-02-08T16:48:42.920Z,4.10
2023-02-08T16:51:21.828Z,4.10
2023-02-08T16:53:49.895Z,4.00
2023-02-08T16:56:19.634Z,3.90
2023-02-08T16:58:46.361Z,3.90
2023-02-08T17:01:13.903Z,3.90
2023-02-08T17:03:40.945Z,3.80
2023-02-08T17:06:11.335Z,3.80
2023-02-08T17:08:37.926Z,3.80
2023-02-08T17:11:04.929Z,3.60
2023-02-08T17:13:31.623Z,3.60
2023-02-08T17:15:59.952Z,3.50
2023-02-08T17:18:27.486Z,3.50
2023-02-08T17:20:59.451Z,3.40
2023-02-08T17:23:26.483Z,3.40
2023-02-08T17:25:53.248Z,3.30
2023-02-08T17:28:20.370Z,3.30
2023-02-08T17:30:47.978Z,3.20
2023-02-08T17:33:20.422Z,3.10
2023-02-08T17:35:48.640Z,3.10
2023-02-08T17:38:15.524Z,3.00
2023-02-08T17:40:42.603Z,3.00
2023-02-08T17:43:11.012Z,3.00
2023-02-08T17:45:39.359Z,2.90
2023-02-08T17:48:06.168Z,3.00
2023-02-08T17:50:32.921Z,2.90
2023-02-08T17:52:59.692Z,2.80
2023-02-08T17:55:26.366Z,2.80
2023-02-08T17:57:53.659Z,2.70
2023-02-08T18:00:21.778Z,2.60
2023-02-08T18:02:50.518Z,2.60
2023-02-08T18:05:18.942Z,2.60
2023-02-08T18:07:45.705Z,2.60
2023-02-08T18:10:12.698Z,2.60
2023-02-08T18:12:39.637Z,2.60
2023-02-08T18:15:06.991Z,2.60
2023-02-08T18:17:33.919Z,2.50
2023-02-08T18:20:00.624Z,2.50
2023-02-08T18:22:27.331Z,2.40
2023-02-08T18:24:55.106Z,2.40
2023-02-08T18:27:24.961Z,2.40
2023-02-08T18:29:51.619Z,2.40
2023-02-08T18:32:20.160Z,2.40
2023-02-08T18:34:46.960Z,2.30
2023-02-08T18:37:13.740Z,2.30
2023-02-08T18:39:40.413Z,2.30
2023-02-08T18:42:07.075Z,2.30
2023-02-08T18:44:36.680Z,2.30
2023-02-08T18:47:03.819Z,2.20
2023-02-08T18:49:31.225Z,2.20
2023-02-08T18:51:58.979Z,2.20
2023-02-08T18:54:26.094Z,2.10
2023-02-08T18:56:55.743Z,2.10
2023-02-08T18:59:22.450Z,2.00
2023-02-08T19:01:49.174Z,2.10
2023-02-08T19:04:15.877Z,2.00
2023-02-08T19:06:42.561Z,1.90
2023-02-08T19:09:09.269Z,1.90
2023-02-08T19:11:37.753Z,1.80
2023-02-08T19:14:06.774Z,1.70
2023-02-08T19:16:35.274Z,1.70
2023-02-08T19:19:02.242Z,1.60
2023-02-08T19:21:29.107Z,1.60
2023-02-08T19:23:58.052Z,1.60
2023-02-08T19:26:26.434Z,1.50
2023-02-08T19:28:54.174Z,1.60
2023-02-08T19:31:21.927Z,1.60
2023-02-08T19:33:49.798Z,1.50
2023-02-08T19:36:18.794Z,1.50
2023-02-08T19:38:46.060Z,1.50
2023-02-08T19:41:21.747Z,1.40
2023-02-08T19:43:48.794Z,1.40
2023-02-08T19:46:22.031Z,1.30
2023-02-08T19:48:49.991Z,1.30
2023-02-08T19:51:16.921Z,1.30
2023-02-08T19:53:43.706Z,1.30
2023-02-08T19:56:12.886Z,1.20
2023-02-08T19:58:39.673Z,1.20
2023-02-08T20:01:11.116Z,1.20
2023-02-08T20:03:37.916Z,1.20
2023-02-08T20:06:04.747Z,1.10
2023-02-08T20:08:31.682Z,1.10
2023-02-08T20:10:58.447Z,1.10
2023-02-08T20:13:25.180Z,1.10
2023-02-08T20:15:51.883Z,1.10
2023-02-08T20:18:21.875Z,1.10
2023-02-08T20:20:58.968Z,1.10
2023-02-08T20:23:31.320Z,1.10
2023-02-08T20:26:21.243Z,1.10
2023-02-08T20:28:51.096Z,1.10
2023-02-08T20:31:23.421Z,1.00
2023-02-08T20:33:50.287Z,1.00
2023-02-08T20:36:19.065Z,1.00
2023-02-08T20:38:51.850Z,1.00
2023-02-08T20:41:19.725Z,1.00
2023-02-08T20:43:46.819Z,1.00
2023-02-08T20:46:22.075Z,1.10
2023-02-08T20:48:49.402Z,1.10
2023-02-08T20:51:17.939Z,1.10
2023-02-08T20:53:45.180Z,1.10
2023-02-08T20:56:20.458Z,1.10
2023-02-08T20:58:47.185Z,1.00
2023-02-08T21:01:16.296Z,1.00
2023-02-08T21:03:43.512Z,1.00
2023-02-08T21:06:39.335Z,1.00
2023-02-08T21:09:07.904Z,1.00
2023-02-08T21:11:34.764Z,1.00
2023-02-08T21:14:01.630Z,0.90
2023-02-08T21:16:28.664Z,0.90
2023-02-08T21:18:57.041Z,0.80
2023-02-08T21:21:23.848Z,0.90
2023-02-08T21:23:50.521Z,0.80
2023-02-08T21:26:18.529Z,0.80
2023-02-08T21:28:45.446Z,0.80
2023-02-08T21:31:14.638Z,0.80
2023-02-08T21:33:44.453Z,0.80
2023-02-08T21:36:19.207Z,0.90
2023-02-08T21:38:46.072Z,0.90
2023-02-08T21:41:20.041Z,0.80
2023-02-08T21:43:47.339Z,0.80
2023-02-08T21:46:14.128Z,0.70
2023-02-08T21:48:59.367Z,0.70
2023-02-08T21:51:45.100Z,0.60
2023-02-08T21:54:41.329Z,0.60
2023-02-08T21:57:16.267Z,0.60
2023-02-08T21:59:43.158Z,0.50
2023-02-08T22:02:25.545Z,0.50
2023-02-08T22:04:53.104Z,0.50
2023-02-08T22:07:19.980Z,0.50
2023-02-08T22:09:46.697Z,0.40
2023-02-08T22:12:15.012Z,0.50
2023-02-08T22:14:41.724Z,0.50
2023-02-08T22:17:08.462Z,0.50
2023-02-08T22:19:38.157Z,0.40
2023-02-08T22:22:04.814Z,0.50
2023-02-08T22:24:33.314Z,0.40
2023-02-08T22:27:00.349Z,0.40
2023-02-08T22:29:27.048Z,0.40
2023-02-08T22:31:53.810Z,0.40
2023-02-08T22:34:20.611Z,0.40
2023-02-08T22:36:47.401Z,0.30
2023-02-08T22:39:14.101Z,0.40
2023-02-08T22:41:40.747Z,0.30
2023-02-08T22:44:07.584Z,0.30
2023-02-08T22:46:34.284Z,0.30
2023-02-08T22:49:00.999Z,0.30
2023-02-08T22:51:28.306Z,0.30
2023-02-08T22:53:55.827Z,0.10
2023-02-08T22:56:22.550Z,-0.10
2023-02-08T22:58:49.203Z,-0.20
2023-02-08T23:01:16.562Z,-0.30
2023-02-08T23:03:43.319Z,-0.50
2023-02-08T23:06:10.516Z,-0.50
2023-02-08T23:08:37.241Z,-0.60
2023-02-08T23:11:04.852Z,-0.60
2023-02-08T23:13:31.793Z,-0.70
2023-02-08T23:15:58.471Z,-0.60
2023-02-08T23:18:25.139Z,-0.80
2023-02-08T23:20:51.900Z,-1.00
2023-02-08T23:23:18.770Z,-1.10
2023-02-08T23:25:45.555Z,-1.30
2023-02-08T23:28:12.720Z,-1.40
2023-02-08T23:30:40.482Z,-1.50
2023-02-08T23:33:07.205Z,-1.40
2023-02-08T23:35:33.946Z,-1.40
2023-02-08T23:38:00.970Z,-1.20
2023-02-08T23:40:27.617Z,-1.20
2023-02-08T23:42:54.272Z,-1.10
2023-02-08T23:45:21.043Z,-1.10
2023-02-08T23:47:47.763Z,-0.90
2023-02-08T23:50:14.494Z,-0.90
2023-02-08T23:52:41.213Z,-1.10
2023-02-08T23:55:08.193Z,-1.30
2023-02-08T23:57:35.473Z,-1.80
